Time;durP1;ratioP1;P1;durP2;ratioP2;P2;SDS_P1;SDS_P2;PMS_P1;PMS_P2;Temp;Humidity;BMP_temperature;BMP_pressure;BME280_temperature;BME280_humidity;BME280_pressure;Samples;Min_cycle;Max_cycle;Signal;HPM_P1;HPM_P2
2022/07/28 00:02:03;;;;;;;14.80;6.33;;;;;;;;;;3345632;42;20589;-66
2022/07/28 00:04:30;;;;;;;17.33;6.70;;;;;;;;;;3355062;42;20614;-66
2022/07/28 00:06:56;;;;;;;16.05;6.45;;;;;;;;;;3356453;42;20089;-65
2022/07/28 00:09:22;;;;;;;15.63;5.90;;;;;;;;;;3349537;42;20089;-65
2022/07/28 00:11:48;;;;;;;13.00;6.13;;;;;;;;;;3344157;42;20089;-66
2022/07/28 00:14:14;;;;;;;12.00;6.75;;;;;;;;;;3353541;42;20100;-67
2022/07/28 00:16:40;;;;;;;15.68;5.93;;;;;;;;;;3348041;42;20601;-65
2022/07/28 00:19:06;;;;;;;14.13;6.15;;;;;;;;;;3344814;42;20208;-67
2022/07/28 00:21:32;;;;;;;14.87;6.10;;;;;;;;;;3357315;42;20104;-65
2022/07/28 00:23:58;;;;;;;13.57;6.55;;;;;;;;;;3343452;42;20088;-67
2022/07/28 00:26:24;;;;;;;13.63;6.03;;;;;;;;;;3354458;42;20452;-65
2022/07/28 00:28:50;;;;;;;13.73;6.23;;;;;;;;;;3351668;42;20083;-66
2022/07/28 00:31:16;;;;;;;14.50;6.55;;;;;;;;;;3348860;42;20111;-65
2022/07/28 00:33:42;;;;;;;13.70;6.15;;;;;;;;;;3352891;42;20088;-65
2022/07/28 00:36:08;;;;;;;16.70;6.35;;;;;;;;;;3350325;42;20101;-65
2022/07/28 00:38:34;;;;;;;14.80;6.47;;;;;;;;;;3345491;42;20142;-65
2022/07/28 00:41:12;;;;;;;16.33;6.00;;;;;;;;;;3345696;42;20092;-65
2022/07/28 00:43:39;;;;;;;14.90;6.00;;;;;;;;;;3341221;42;20103;-67
2022/07/28 00:46:05;;;;;;;13.10;6.10;;;;;;;;;;3346457;42;20567;-65
2022/07/28 00:48:31;;;;;;;14.63;6.03;;;;;;;;;;3340314;42;20137;-65
2022/07/28 00:50:57;;;;;;;14.30;5.53;;;;;;;;;;3354356;42;20096;-65
2022/07/28 00:53:23;;;;;;;16.17;6.35;;;;;;;;;;3346775;42;20151;-65
2022/07/28 00:55:49;;;;;;;12.80;6.38;;;;;;;;;;3349045;42;20586;-66
2022/07/28 00:58:15;;;;;;;13.32;6.00;;;;;;;;;;3353726;42;20100;-65
2022/07/28 01:00:40;;;;;;;18.00;6.20;;;;;;;;;;3350410;42;20581;-65
2022/07/28 01:03:06;;;;;;;13.18;5.90;;;;;;;;;;3353656;42;20091;-65
2022/07/28 01:05:59;;;;;;;12.73;6.40;;;;;;;;;;3347527;42;20101;-66
2022/07/28 01:09:03;;;;;;;12.77;6.15;;;;;;;;;;3341910;42;20212;-65
2022/07/28 01:11:31;;;;;;;11.68;5.70;;;;;;;;;;3355278;42;20127;-65
2022/07/28 01:14:09;;;;;;;14.03;5.93;;;;;;;;;;3345953;42;20080;-65
2022/07/28 01:16:51;;;;;;;12.65;6.07;;;;;;;;;;3349525;42;20088;-64
2022/07/28 01:19:44;;;;;;;12.52;6.00;;;;;;;;;;3344865;42;20560;-66
2022/07/28 01:22:11;;;;;;;14.15;5.90;;;;;;;;;;3348913;42;20235;-65
2022/07/28 01:25:06;;;;;;;14.30;5.72;;;;;;;;;;3344996;42;20108;-66
2022/07/28 01:27:56;;;;;;;13.60;5.60;;;;;;;;;;3357430;42;20743;-65
2022/07/28 01:30:31;;;;;;;19.63;6.05;;;;;;;;;;3342103;42;20567;-66
2022/07/28 01:33:03;;;;;;;12.63;5.15;;;;;;;;;;3343281;42;20088;-65
2022/07/28 01:35:34;;;;;;;10.93;5.22;;;;;;;;;;3346074;42;20551;-65
2022/07/28 01:38:01;;;;;;;12.38;5.70;;;;;;;;;;3340258;42;20100;-66
2022/07/28 01:40:30;;;;;;;14.37;5.87;;;;;;;;;;3341751;42;20148;-66
2022/07/28 01:42:58;;;;;;;11.93;5.70;;;;;;;;;;3344660;42;20101;-65
2022/07/28 01:45:24;;;;;;;13.65;5.50;;;;;;;;;;3345790;42;20158;-66
2022/07/28 01:47:52;;;;;;;10.85;5.07;;;;;;;;;;3346215;42;20127;-65
2022/07/28 01:50:18;;;;;;;12.40;5.78;;;;;;;;;;3341927;42;20088;-65
2022/07/28 01:52:45;;;;;;;12.70;5.37;;;;;;;;;;3344269;42;20597;-65
2022/07/28 01:55:11;;;;;;;14.32;6.05;;;;;;;;;;3351958;42;20115;-65
2022/07/28 01:57:37;;;;;;;14.68;5.03;;;;;;;;;;3345845;42;20629;-65
2022/07/28 02:00:09;;;;;;;11.82;4.88;;;;;;;;;;3344462;42;20139;-65
2022/07/28 02:02:35;;;;;;;12.98;5.10;;;;;;;;;;3354730;42;20169;-66
2022/07/28 02:05:01;;;;;;;12.00;4.93;;;;;;;;;;3345793;42;20136;-65
2022/07/28 02:07:27;;;;;;;14.25;5.18;;;;;;;;;;3346683;42;20088;-65
2022/07/28 02:09:53;;;;;;;16.00;5.20;;;;;;;;;;3340192;42;20091;-65
2022/07/28 02:12:19;;;;;;;11.93;4.70;;;;;;;;;;3345250;42;20156;-65
2022/07/28 02:14:49;;;;;;;10.27;5.00;;;;;;;;;;3337267;42;20092;-64
2022/07/28 02:17:16;;;;;;;11.43;5.15;;;;;;;;;;3342847;42;20685;-66
2022/07/28 02:19:42;;;;;;;12.68;5.13;;;;;;;;;;3344564;42;20108;-65
2022/07/28 02:22:08;;;;;;;12.48;4.97;;;;;;;;;;3348010;42;20107;-66
2022/07/28 02:24:34;;;;;;;10.43;4.80;;;;;;;;;;3343262;42;20135;-65
2022/07/28 02:27:05;;;;;;;14.30;5.30;;;;;;;;;;3342911;42;20088;-64
2022/07/28 02:29:34;;;;;;;16.25;5.95;;;;;;;;;;3342973;42;20567;-66
2022/07/28 02:32:07;;;;;;;16.42;7.07;;;;;;;;;;3348210;42;20134;-65
2022/07/28 02:34:33;;;;;;;14.87;5.10;;;;;;;;;;3348449;42;20132;-71
2022/07/28 02:37:00;;;;;;;12.13;5.47;;;;;;;;;;3343636;42;20154;-65
2022/07/28 02:39:29;;;;;;;15.77;6.55;;;;;;;;;;3342641;42;20116;-65
2022/07/28 02:42:00;;;;;;;26.20;8.90;;;;;;;;;;3340261;42;20143;-65
2022/07/28 02:44:29;;;;;;;31.00;12.02;;;;;;;;;;3345089;42;20147;-64
2022/07/28 02:46:55;;;;;;;38.90;13.80;;;;;;;;;;3336689;42;20095;-65
2022/07/28 02:49:24;;;;;;;47.00;16.08;;;;;;;;;;3342844;42;20096;-65
2022/07/28 02:51:50;;;;;;;45.45;16.65;;;;;;;;;;3345702;42;20096;-65
2022/07/28 02:54:16;;;;;;;55.42;20.75;;;;;;;;;;3337881;42;20538;-65
2022/07/28 02:56:42;;;;;;;50.88;18.98;;;;;;;;;;3345387;42;20530;-65
2022/07/28 02:59:08;;;;;;;43.37;16.10;;;;;;;;;;3335309;42;20579;-65
2022/07/28 03:01:34;;;;;;;35.42;15.25;;;;;;;;;;3338451;42;20127;-65
2022/07/28 03:04:00;;;;;;;37.88;14.75;;;;;;;;;;3338884;42;20163;-66
2022/07/28 03:06:26;;;;;;;37.40;14.70;;;;;;;;;;3346819;42;20088;-65
2022/07/28 03:08:52;;;;;;;32.70;15.20;;;;;;;;;;3344879;42;20100;-65
2022/07/28 03:11:18;;;;;;;27.50;12.52;;;;;;;;;;3354432;42;20084;-65
2022/07/28 03:13:44;;;;;;;30.88;12.82;;;;;;;;;;3346525;42;20098;-65
2022/07/28 03:16:10;;;;;;;27.13;10.97;;;;;;;;;;3358459;42;20539;-65
2022/07/28 03:18:36;;;;;;;27.05;11.88;;;;;;;;;;3351786;42;20550;-64
2022/07/28 03:21:02;;;;;;;24.58;11.88;;;;;;;;;;3353268;42;20596;-64
2022/07/28 03:23:32;;;;;;;24.38;11.02;;;;;;;;;;3354226;42;20625;-64
2022/07/28 03:26:01;;;;;;;22.17;10.37;;;;;;;;;;3348553;42;20663;-64
2022/07/28 03:28:27;;;;;;;29.10;13.27;;;;;;;;;;3338803;42;20096;-64
2022/07/28 03:30:59;;;;;;;22.48;11.07;;;;;;;;;;3341197;42;20109;-64
2022/07/28 03:33:25;;;;;;;24.20;10.57;;;;;;;;;;3347172;42;20545;-65
2022/07/28 03:35:52;;;;;;;23.83;10.20;;;;;;;;;;3344184;42;20080;-64
2022/07/28 03:38:21;;;;;;;21.67;9.20;;;;;;;;;;3337854;42;20096;-64
2022/07/28 03:40:47;;;;;;;19.83;9.48;;;;;;;;;;3344492;42;20092;-65
2022/07/28 03:43:15;;;;;;;19.23;8.98;;;;;;;;;;3345143;42;20095;-64
2022/07/28 03:45:41;;;;;;;20.15;9.82;;;;;;;;;;3342982;42;20109;-64
2022/07/28 03:48:07;;;;;;;20.37;9.00;;;;;;;;;;3346285;42;20155;-64
2022/07/28 03:50:33;;;;;;;23.67;10.25;;;;;;;;;;3355773;42;20501;-66
2022/07/28 03:53:01;;;;;;;24.75;10.60;;;;;;;;;;3355213;42;20179;-64
2022/07/28 03:55:27;;;;;;;24.48;10.95;;;;;;;;;;3339457;42;20566;-66
2022/07/28 03:57:55;;;;;;;17.65;9.07;;;;;;;;;;3342518;42;20084;-65
2022/07/28 04:00:22;;;;;;;15.53;9.00;;;;;;;;;;3349334;42;20096;-64
2022/07/28 04:02:48;;;;;;;15.68;8.50;;;;;;;;;;3341366;42;20100;-59
2022/07/28 04:05:15;;;;;;;16.42;7.68;;;;;;;;;;3355288;42;20096;-57
2022/07/28 04:07:41;;;;;;;13.60;7.30;;;;;;;;;;3354985;42;20096;-59
2022/07/28 04:10:10;;;;;;;14.52;7.07;;;;;;;;;;3355159;42;20096;-55
2022/07/28 04:12:46;;;;;;;10.97;6.50;;;;;;;;;;3346041;42;20164;-59
2022/07/28 04:15:15;;;;;;;12.65;6.30;;;;;;;;;;3355154;42;20283;-60
2022/07/28 04:17:42;;;;;;;10.13;5.90;;;;;;;;;;3351772;42;20096;-62
2022/07/28 04:20:08;;;;;;;15.50;6.07;;;;;;;;;;3349756;42;20175;-58
2022/07/28 04:22:34;;;;;;;13.35;6.25;;;;;;;;;;3345221;42;20104;-62
2022/07/28 04:25:00;;;;;;;10.33;6.23;;;;;;;;;;3355171;42;20463;-59
2022/07/28 04:27:26;;;;;;;12.38;6.35;;;;;;;;;;3353737;42;20560;-59
2022/07/28 04:29:53;;;;;;;11.38;6.15;;;;;;;;;;3358061;42;20669;-60
2022/07/28 04:32:18;;;;;;;13.70;6.05;;;;;;;;;;3348475;42;20707;-58
2022/07/28 04:34:44;;;;;;;15.53;6.30;;;;;;;;;;3345329;42;20839;-59
2022/07/28 04:37:11;;;;;;;14.43;6.00;;;;;;;;;;3353931;42;20092;-58
2022/07/28 04:39:37;;;;;;;10.40;6.03;;;;;;;;;;3352654;42;20495;-55
2022/07/28 04:42:03;;;;;;;13.20;6.28;;;;;;;;;;3352209;42;20114;-59
2022/07/28 04:44:29;;;;;;;10.93;5.60;;;;;;;;;;3353100;42;20586;-58
2022/07/28 04:46:55;;;;;;;11.40;5.95;;;;;;;;;;3351423;42;20116;-60
2022/07/28 04:49:21;;;;;;;10.88;6.05;;;;;;;;;;3353279;42;20139;-56
2022/07/28 04:51:49;;;;;;;11.15;6.00;;;;;;;;;;3356878;42;20117;-58
2022/07/28 04:54:15;;;;;;;12.63;6.00;;;;;;;;;;3351902;42;20094;-60
2022/07/28 04:56:41;;;;;;;15.18;6.18;;;;;;;;;;3353078;42;20195;-59
2022/07/28 04:59:07;;;;;;;10.50;6.20;;;;;;;;;;3345686;42;20293;-59
2022/07/28 05:01:37;;;;;;;11.52;6.25;;;;;;;;;;3351814;42;20134;-60
2022/07/28 05:04:04;;;;;;;10.82;6.03;;;;;;;;;;3352747;42;20163;-59
2022/07/28 05:06:30;;;;;;;11.97;6.07;;;;;;;;;;3350340;42;20184;-58
2022/07/28 05:08:56;;;;;;;11.48;5.93;;;;;;;;;;3355158;42;20578;-57
2022/07/28 05:11:22;;;;;;;10.40;5.97;;;;;;;;;;3353724;42;20208;-58
2022/07/28 05:13:48;;;;;;;15.93;6.32;;;;;;;;;;3354622;42;20136;-57
2022/07/28 05:16:14;;;;;;;12.93;5.70;;;;;;;;;;3348094;42;20156;-57
2022/07/28 05:18:40;;;;;;;9.65;5.72;;;;;;;;;;3357071;42;20134;-57
2022/07/28 05:21:06;;;;;;;14.40;5.90;;;;;;;;;;3353259;42;20548;-57
2022/07/28 05:23:32;;;;;;;10.85;5.45;;;;;;;;;;3351449;42;20103;-58
2022/07/28 05:25:58;;;;;;;10.30;5.50;;;;;;;;;;3356415;42;20088;-57
2022/07/28 05:28:24;;;;;;;10.25;5.22;;;;;;;;;;3360790;42;20100;-57
2022/07/28 05:30:50;;;;;;;10.95;4.97;;;;;;;;;;3360833;42;20134;-58
2022/07/28 05:33:16;;;;;;;10.88;5.55;;;;;;;;;;3360505;42;20110;-57
2022/07/28 05:35:43;;;;;;;10.10;5.30;;;;;;;;;;3357260;42;20162;-57
2022/07/28 05:38:09;;;;;;;10.35;5.35;;;;;;;;;;3358159;42;20687;-58
2022/07/28 05:40:35;;;;;;;9.38;5.68;;;;;;;;;;3358728;42;20517;-58
2022/07/28 05:43:01;;;;;;;9.98;5.50;;;;;;;;;;3356145;42;20637;-56
2022/07/28 05:45:27;;;;;;;11.82;5.60;;;;;;;;;;3355975;42;20096;-58
2022/07/28 05:47:53;;;;;;;13.48;5.43;;;;;;;;;;3356074;42;20104;-57
2022/07/28 05:50:20;;;;;;;15.23;6.40;;;;;;;;;;3352486;42;20263;-57
2022/07/28 05:52:47;;;;;;;12.07;5.45;;;;;;;;;;3355214;42;20564;-58
2022/07/28 05:55:13;;;;;;;9.57;5.15;;;;;;;;;;3352584;42;20100;-61
2022/07/28 05:57:39;;;;;;;9.00;5.40;;;;;;;;;;3353267;42;20136;-64
2022/07/28 06:00:10;;;;;;;14.90;6.05;;;;;;;;;;3352721;42;20159;-59
2022/07/28 06:02:37;;;;;;;10.18;5.68;;;;;;;;;;3351878;42;20844;-59
2022/07/28 06:05:05;;;;;;;9.68;5.40;;;;;;;;;;3344178;42;20092;-57
2022/07/28 06:07:31;;;;;;;9.93;5.80;;;;;;;;;;3356772;42;20084;-59
2022/07/28 06:09:57;;;;;;;10.20;5.45;;;;;;;;;;3350905;42;20630;-60
2022/07/28 06:12:23;;;;;;;11.32;6.00;;;;;;;;;;3357149;42;20085;-59
2022/07/28 06:14:49;;;;;;;9.68;5.63;;;;;;;;;;3356784;42;20100;-58
2022/07/28 06:17:15;;;;;;;11.47;6.07;;;;;;;;;;3354731;42;20468;-59
2022/07/28 06:19:42;;;;;;;13.00;6.47;;;;;;;;;;3354098;42;20212;-59
2022/07/28 06:22:08;;;;;;;11.23;5.70;;;;;;;;;;3349108;42;20100;-58
2022/07/28 06:24:35;;;;;;;10.93;5.72;;;;;;;;;;3353117;42;20084;-59
2022/07/28 06:27:01;;;;;;;10.65;6.60;;;;;;;;;;3352144;42;20167;-57
2022/07/28 06:29:28;;;;;;;12.03;6.50;;;;;;;;;;3353709;42;20599;-59
2022/07/28 06:31:54;;;;;;;9.88;6.28;;;;;;;;;;3353265;42;20089;-58
2022/07/28 06:34:20;;;;;;;11.45;6.10;;;;;;;;;;3346536;42;20559;-58
2022/07/28 06:36:46;;;;;;;13.00;6.18;;;;;;;;;;3353920;42;20100;-57
2022/07/28 06:39:12;;;;;;;11.60;6.32;;;;;;;;;;3353527;42;20085;-57
2022/07/28 06:41:42;;;;;;;11.32;6.72;;;;;;;;;;3355173;42;20115;-58
2022/07/28 06:44:08;;;;;;;13.98;7.32;;;;;;;;;;3350255;42;20242;-57
2022/07/28 06:46:34;;;;;;;11.27;6.90;;;;;;;;;;3355062;42;20571;-57
2022/07/28 06:49:01;;;;;;;9.90;6.80;;;;;;;;;;3355146;42;20099;-58
2022/07/28 06:51:27;;;;;;;10.93;6.90;;;;;;;;;;3353333;42;20102;-56
2022/07/28 06:53:54;;;;;;;12.85;7.80;;;;;;;;;;3347149;42;20088;-60
2022/07/28 06:56:21;;;;;;;15.93;7.65;;;;;;;;;;3356271;42;20099;-57
2022/07/28 06:58:47;;;;;;;13.50;7.28;;;;;;;;;;3354007;42;20114;-58
2022/07/28 07:01:14;;;;;;;16.67;8.20;;;;;;;;;;3352562;42;20095;-57
2022/07/28 07:03:41;;;;;;;12.63;7.87;;;;;;;;;;3352080;42;20513;-56
2022/07/28 07:06:07;;;;;;;13.52;7.10;;;;;;;;;;3354578;42;20081;-56
2022/07/28 07:08:33;;;;;;;13.90;7.28;;;;;;;;;;3349925;42;20085;-57
2022/07/28 07:10:59;;;;;;;19.67;10.00;;;;;;;;;;3348687;42;20194;-58
2022/07/28 07:13:25;;;;;;;16.00;8.25;;;;;;;;;;3354046;42;20104;-59
2022/07/28 07:15:51;;;;;;;17.00;8.73;;;;;;;;;;3350269;42;20561;-58
2022/07/28 07:18:17;;;;;;;13.18;7.78;;;;;;;;;;3350349;42;20107;-57
2022/07/28 07:20:43;;;;;;;12.15;7.32;;;;;;;;;;3353585;42;20151;-57
2022/07/28 07:23:09;;;;;;;12.48;8.40;;;;;;;;;;3358058;42;20100;-58
2022/07/28 07:25:35;;;;;;;15.53;7.97;;;;;;;;;;3357092;42;20107;-56
2022/07/28 07:28:01;;;;;;;12.75;7.38;;;;;;;;;;3355745;42;20105;-57
2022/07/28 07:30:27;;;;;;;13.35;7.40;;;;;;;;;;3354830;42;20162;-58
2022/07/28 07:32:53;;;;;;;12.15;7.47;;;;;;;;;;3349351;42;20167;-58
2022/07/28 07:35:19;;;;;;;14.37;8.37;;;;;;;;;;3353667;42;20105;-57
2022/07/28 07:37:45;;;;;;;14.48;8.10;;;;;;;;;;3348957;42;20114;-57
2022/07/28 07:40:11;;;;;;;13.95;8.02;;;;;;;;;;3354760;42;20797;-60
2022/07/28 07:42:37;;;;;;;13.73;7.90;;;;;;;;;;3350649;42;20085;-58
2022/07/28 07:45:03;;;;;;;12.63;8.07;;;;;;;;;;3346427;42;20084;-57
2022/07/28 07:47:29;;;;;;;12.75;8.15;;;;;;;;;;3356983;42;20131;-58
2022/07/28 07:49:55;;;;;;;13.38;7.55;;;;;;;;;;3352668;42;20096;-58
2022/07/28 07:52:21;;;;;;;13.10;7.97;;;;;;;;;;3350453;42;20174;-59
2022/07/28 07:54:47;;;;;;;16.08;7.88;;;;;;;;;;3353122;42;20097;-58
2022/07/28 07:57:13;;;;;;;14.02;7.88;;;;;;;;;;3357481;42;20574;-58
2022/07/28 07:59:39;;;;;;;13.70;7.72;;;;;;;;;;3357826;42;20103;-57
2022/07/28 08:02:05;;;;;;;13.33;8.07;;;;;;;;;;3352361;42;20098;-57
2022/07/28 08:04:31;;;;;;;12.52;7.93;;;;;;;;;;3357991;42;20084;-58
2022/07/28 08:06:57;;;;;;;13.55;8.60;;;;;;;;;;3357409;42;20542;-58
2022/07/28 08:09:23;;;;;;;13.13;7.70;;;;;;;;;;3349992;42;20096;-58
2022/07/28 08:11:49;;;;;;;18.00;7.70;;;;;;;;;;3356547;42;20502;-58
2022/07/28 08:14:16;;;;;;;12.43;8.13;;;;;;;;;;3354516;42;20728;-58
2022/07/28 08:16:41;;;;;;;18.63;8.10;;;;;;;;;;3353906;42;20605;-59
2022/07/28 08:19:07;;;;;;;12.40;7.97;;;;;;;;;;3353748;42;20550;-58
2022/07/28 08:21:33;;;;;;;12.90;7.63;;;;;;;;;;3357371;42;20138;-57
2022/07/28 08:23:59;;;;;;;12.57;7.40;;;;;;;;;;3357900;42;20088;-59
2022/07/28 08:26:28;;;;;;;12.10;7.78;;;;;;;;;;3351027;42;20089;-57
2022/07/28 08:28:54;;;;;;;15.15;7.82;;;;;;;;;;3344632;42;20092;-60
2022/07/28 08:31:20;;;;;;;15.67;8.60;;;;;;;;;;3345839;42;20106;-57
2022/07/28 08:33:47;;;;;;;13.38;7.70;;;;;;;;;;3356618;42;20089;-58
2022/07/28 08:36:14;;;;;;;14.13;7.47;;;;;;;;;;3352798;42;20100;-59
2022/07/28 08:38:40;;;;;;;12.95;7.57;;;;;;;;;;3356922;42;20108;-60
2022/07/28 08:41:06;;;;;;;12.20;7.70;;;;;;;;;;3353397;42;20089;-58
2022/07/28 08:43:34;;;;;;;14.33;8.27;;;;;;;;;;3346156;42;20084;-59
2022/07/28 08:46:00;;;;;;;13.98;8.15;;;;;;;;;;3354742;42;20148;-58
2022/07/28 08:48:29;;;;;;;13.35;8.20;;;;;;;;;;3357420;42;20088;-57
2022/07/28 08:50:59;;;;;;;10.93;7.35;;;;;;;;;;3353534;42;20251;-58
2022/07/28 08:53:25;;;;;;;14.00;7.10;;;;;;;;;;3356319;42;20091;-54
2022/07/28 08:55:51;;;;;;;14.03;7.27;;;;;;;;;;3351342;42;20084;-58
2022/07/28 08:58:17;;;;;;;12.77;7.50;;;;;;;;;;3358018;42;20088;-59
2022/07/28 09:00:43;;;;;;;11.98;7.57;;;;;;;;;;3343000;42;20617;-59
2022/07/28 09:03:10;;;;;;;12.38;7.35;;;;;;;;;;3342959;42;20104;-58
2022/07/28 09:05:36;;;;;;;13.93;7.20;;;;;;;;;;3356692;42;20100;-59
2022/07/28 09:08:03;;;;;;;12.50;7.32;;;;;;;;;;3342972;42;20092;-57
2022/07/28 09:10:29;;;;;;;11.30;7.00;;;;;;;;;;3350118;42;20114;-57
2022/07/28 09:12:55;;;;;;;13.20;7.68;;;;;;;;;;3358260;42;20111;-59
2022/07/28 09:15:21;;;;;;;13.83;7.50;;;;;;;;;;3355785;42;20081;-58
2022/07/28 09:17:47;;;;;;;11.20;7.15;;;;;;;;;;3354777;42;20744;-58
2022/07/28 09:20:13;;;;;;;13.88;7.50;;;;;;;;;;3359114;42;20514;-60
2022/07/28 09:22:55;;;;;;;13.43;7.75;;;;;;;;;;3343995;42;20108;-58
2022/07/28 09:25:21;;;;;;;13.77;7.82;;;;;;;;;;3361488;42;20092;-62
2022/07/28 09:27:47;;;;;;;14.80;7.43;;;;;;;;;;3361433;42;20080;-57
2022/07/28 09:30:13;;;;;;;12.77;7.00;;;;;;;;;;3360828;42;20557;-57
2022/07/28 09:32:39;;;;;;;12.77;7.13;;;;;;;;;;3361513;42;20211;-57
2022/07/28 09:35:19;;;;;;;12.88;7.22;;;;;;;;;;3360014;42;20087;-58
2022/07/28 09:37:45;;;;;;;12.43;7.17;;;;;;;;;;3360565;42;20578;-57
2022/07/28 09:40:12;;;;;;;12.95;7.15;;;;;;;;;;3351159;42;20084;-58
2022/07/28 09:42:45;;;;;;;12.90;6.47;;;;;;;;;;3350760;42;20088;-58
2022/07/28 09:45:11;;;;;;;10.90;6.20;;;;;;;;;;3352657;42;20107;-58
2022/07/28 09:47:39;;;;;;;11.20;6.40;;;;;;;;;;3357944;42;20170;-58
2022/07/28 09:50:05;;;;;;;10.60;5.80;;;;;;;;;;3361324;42;20367;-59
2022/07/28 09:52:33;;;;;;;10.77;5.90;;;;;;;;;;3363009;42;20110;-60
2022/07/28 09:55:07;;;;;;;13.52;6.20;;;;;;;;;;3359558;42;20165;-57
2022/07/28 09:57:34;;;;;;;12.38;6.13;;;;;;;;;;3360135;42;20516;-58
2022/07/28 10:00:01;;;;;;;12.50;6.63;;;;;;;;;;3352964;42;20139;-59
2022/07/28 10:02:30;;;;;;;9.80;6.30;;;;;;;;;;3362605;42;20111;-59
2022/07/28 10:04:57;;;;;;;10.02;6.15;;;;;;;;;;3360112;42;20188;-58
2022/07/28 10:07:23;;;;;;;11.27;6.70;;;;;;;;;;3361397;42;20088;-56
2022/07/28 10:10:09;;;;;;;10.90;6.40;;;;;;;;;;3361984;42;20094;-57
2022/07/28 10:12:36;;;;;;;12.57;6.60;;;;;;;;;;3361046;42;20096;-57
2022/07/28 10:18:05;;;;;;;13.23;7.05;;;;;;;;;;3343655;42;20088;-58
2022/07/28 10:20:32;;;;;;;11.25;6.70;;;;;;;;;;3361656;42;20092;-58
2022/07/28 10:23:01;;;;;;;13.77;6.32;;;;;;;;;;3360189;42;20152;-59
2022/07/28 10:25:28;;;;;;;11.00;6.33;;;;;;;;;;3347442;42;20096;-59
2022/07/28 10:27:54;;;;;;;11.45;7.05;;;;;;;;;;3352372;42;20163;-58
2022/07/28 10:30:20;;;;;;;11.35;6.28;;;;;;;;;;3347933;42;20094;-58
2022/07/28 10:32:46;;;;;;;11.10;6.95;;;;;;;;;;3342828;42;20235;-59
2022/07/28 10:35:16;;;;;;;11.90;6.70;;;;;;;;;;3357745;42;20116;-57
2022/07/28 10:37:53;;;;;;;14.27;6.65;;;;;;;;;;3350073;42;20113;-62
2022/07/28 10:40:25;;;;;;;11.50;6.30;;;;;;;;;;3354394;42;20084;-59
2022/07/28 10:42:52;;;;;;;11.48;6.63;;;;;;;;;;3345036;42;20163;-57
2022/07/28 10:45:18;;;;;;;13.40;6.57;;;;;;;;;;3354884;42;20103;-58
2022/07/28 10:47:44;;;;;;;11.03;6.27;;;;;;;;;;3345904;42;20103;-57
2022/07/28 10:50:10;;;;;;;12.27;6.60;;;;;;;;;;3347595;42;20092;-60
2022/07/28 10:52:39;;;;;;;11.85;6.22;;;;;;;;;;3354242;42;20099;-56
2022/07/28 10:55:17;;;;;;;10.30;6.20;;;;;;;;;;3344388;42;20093;-57
2022/07/28 10:58:10;;;;;;;11.27;6.20;;;;;;;;;;3354145;42;20190;-58
2022/07/28 11:00:36;;;;;;;10.23;6.23;;;;;;;;;;3337129;42;20088;-58
2022/07/28 11:03:02;;;;;;;11.77;6.15;;;;;;;;;;3346548;42;20107;-58
2022/07/28 11:05:38;;;;;;;11.80;6.22;;;;;;;;;;3353283;42;20556;-59
2022/07/28 11:08:08;;;;;;;12.02;6.40;;;;;;;;;;3351028;42;20111;-59
2022/07/28 11:10:48;;;;;;;10.80;6.47;;;;;;;;;;3353476;42;20111;-58
2022/07/28 11:13:31;;;;;;;11.82;6.80;;;;;;;;;;3356054;42;20144;-58
2022/07/28 11:16:12;;;;;;;13.65;6.38;;;;;;;;;;3346417;42;20140;-58
2022/07/28 11:19:05;;;;;;;10.80;6.25;;;;;;;;;;3353638;42;20092;-58
2022/07/28 11:21:31;;;;;;;12.13;6.65;;;;;;;;;;3352898;42;20100;-58
2022/07/28 11:23:57;;;;;;;13.13;6.57;;;;;;;;;;3349845;42;20107;-56
2022/07/28 11:26:23;;;;;;;11.20;6.30;;;;;;;;;;3349801;42;20096;-58
2022/07/28 11:29:05;;;;;;;13.70;6.40;;;;;;;;;;3354187;42;20088;-59
2022/07/28 11:31:46;;;;;;;12.52;6.72;;;;;;;;;;3354982;42;20089;-57
2022/07/28 11:34:17;;;;;;;13.27;6.20;;;;;;;;;;3354481;42;20159;-58
2022/07/28 11:37:09;;;;;;;11.67;6.83;;;;;;;;;;3355087;42;20179;-58
2022/07/28 11:39:41;;;;;;;12.40;6.20;;;;;;;;;;3358300;42;20092;-58
2022/07/28 11:42:31;;;;;;;12.43;6.40;;;;;;;;;;3356037;42;20088;-58
2022/07/28 11:45:17;;;;;;;10.15;6.28;;;;;;;;;;3355959;42;20111;-59
2022/07/28 11:47:43;;;;;;;14.05;6.75;;;;;;;;;;3343133;42;20131;-58
2022/07/28 11:50:13;;;;;;;12.77;6.97;;;;;;;;;;3357721;42;20545;-59
2022/07/28 11:52:50;;;;;;;13.60;6.93;;;;;;;;;;3352892;42;20164;-57
2022/07/28 11:55:17;;;;;;;13.20;7.00;;;;;;;;;;3357502;42;20554;-57
2022/07/28 11:57:44;;;;;;;11.88;6.65;;;;;;;;;;3349813;42;20167;-58
2022/07/28 12:00:10;;;;;;;13.00;6.37;;;;;;;;;;3349192;42;20870;-58
2022/07/28 12:02:39;;;;;;;10.75;6.40;;;;;;;;;;3355298;42;20124;-59
2022/07/28 12:05:11;;;;;;;13.15;6.63;;;;;;;;;;3343721;42;20092;-58
2022/07/28 12:07:40;;;;;;;12.38;6.70;;;;;;;;;;3348011;42;20092;-58
2022/07/28 12:10:28;;;;;;;14.50;6.95;;;;;;;;;;3353299;42;20158;-59
2022/07/28 12:12:59;;;;;;;11.77;6.07;;;;;;;;;;3348793;42;20115;-56
2022/07/28 12:15:25;;;;;;;10.70;6.60;;;;;;;;;;3344951;42;20107;-57
2022/07/28 12:17:51;;;;;;;10.98;6.15;;;;;;;;;;3354377;42;20092;-59
2022/07/28 12:20:17;;;;;;;10.88;6.20;;;;;;;;;;3353427;42;20108;-56
2022/07/28 12:23:00;;;;;;;11.90;6.93;;;;;;;;;;3351628;42;20108;-57
2022/07/28 12:25:27;;;;;;;10.80;6.07;;;;;;;;;;3355182;42;20144;-59
2022/07/28 12:27:53;;;;;;;11.52;6.13;;;;;;;;;;3353923;42;20144;-57
2022/07/28 12:30:26;;;;;;;11.75;6.20;;;;;;;;;;3349955;42;20095;-62
2022/07/28 12:32:52;;;;;;;11.55;5.97;;;;;;;;;;3360973;42;20095;-58
2022/07/28 12:35:19;;;;;;;11.35;6.35;;;;;;;;;;3362835;42;20099;-58
2022/07/28 12:37:47;;;;;;;11.00;6.50;;;;;;;;;;3353980;42;20109;-57
2022/07/28 12:40:14;;;;;;;14.07;6.35;;;;;;;;;;3340501;42;20084;-58
2022/07/28 12:42:40;;;;;;;10.52;6.28;;;;;;;;;;3357856;42;20585;-58
2022/07/28 12:45:08;;;;;;;11.30;6.00;;;;;;;;;;3342044;42;20096;-59
2022/07/28 12:47:35;;;;;;;11.98;5.95;;;;;;;;;;3360108;42;20096;-58
2022/07/28 12:50:07;;;;;;;10.87;6.40;;;;;;;;;;3351402;42;20146;-57
2022/07/28 12:52:33;;;;;;;11.50;5.82;;;;;;;;;;3363167;42;20502;-58
2022/07/28 12:54:59;;;;;;;11.88;6.22;;;;;;;;;;3361338;42;20092;-60
2022/07/28 12:57:41;;;;;;;13.32;6.50;;;;;;;;;;3362312;42;20170;-56
2022/07/28 13:00:08;;;;;;;12.07;6.30;;;;;;;;;;3349368;42;20134;-59
2022/07/28 13:02:37;;;;;;;12.57;6.57;;;;;;;;;;3352107;42;20100;-58
2022/07/28 13:05:04;;;;;;;10.38;6.30;;;;;;;;;;3351146;42;20116;-57
2022/07/28 13:07:31;;;;;;;12.85;6.22;;;;;;;;;;3355860;42;20097;-57
2022/07/28 13:10:00;;;;;;;10.80;6.28;;;;;;;;;;3356035;42;20146;-55
2022/07/28 13:12:26;;;;;;;12.45;6.35;;;;;;;;;;3354638;42;20681;-57
2022/07/28 13:14:56;;;;;;;13.47;6.47;;;;;;;;;;3360656;42;20160;-57
2022/07/28 13:17:24;;;;;;;10.80;5.82;;;;;;;;;;3354159;42;20226;-56
2022/07/28 13:20:00;;;;;;;12.75;6.30;;;;;;;;;;3353843;42;20088;-58
2022/07/28 13:22:32;;;;;;;11.98;6.32;;;;;;;;;;3352422;42;20148;-56
2022/07/28 13:24:58;;;;;;;11.80;6.47;;;;;;;;;;3353519;42;20463;-57
2022/07/28 13:27:24;;;;;;;11.77;6.10;;;;;;;;;;3344419;42;20093;-56
2022/07/28 13:29:50;;;;;;;11.45;5.93;;;;;;;;;;3356156;42;20582;-57
2022/07/28 13:32:16;;;;;;;13.73;6.57;;;;;;;;;;3358851;42;20550;-57
2022/07/28 13:34:43;;;;;;;13.63;8.23;;;;;;;;;;3361937;42;20091;-55
2022/07/28 13:37:10;;;;;;;12.63;6.67;;;;;;;;;;3359194;42;20103;-57
2022/07/28 13:39:39;;;;;;;12.02;6.70;;;;;;;;;;3351342;42;20551;-57
2022/07/28 13:42:05;;;;;;;13.88;6.53;;;;;;;;;;3341202;42;20190;-57
2022/07/28 13:44:31;;;;;;;12.10;6.63;;;;;;;;;;3351347;42;20173;-56
2022/07/28 13:46:58;;;;;;;12.35;6.55;;;;;;;;;;3348779;42;20100;-55
2022/07/28 13:49:26;;;;;;;13.53;6.20;;;;;;;;;;3352042;42;20093;-58
2022/07/28 13:51:52;;;;;;;11.88;6.38;;;;;;;;;;3343445;42;20095;-55
2022/07/28 13:54:19;;;;;;;14.10;6.57;;;;;;;;;;3350482;42;20143;-59
2022/07/28 13:56:45;;;;;;;13.13;6.30;;;;;;;;;;3349475;42;20161;-59
2022/07/28 13:59:12;;;;;;;15.50;6.38;;;;;;;;;;3351969;42;20224;-58
2022/07/28 14:01:39;;;;;;;11.43;6.27;;;;;;;;;;3351603;42;20561;-59
2022/07/28 14:04:06;;;;;;;11.45;5.82;;;;;;;;;;3347971;42;20092;-58
2022/07/28 14:06:32;;;;;;;10.40;5.70;;;;;;;;;;3353861;42;20555;-57
2022/07/28 14:08:58;;;;;;;11.55;6.15;;;;;;;;;;3350375;42;20092;-57
2022/07/28 14:11:24;;;;;;;13.35;6.20;;;;;;;;;;3340456;42;20571;-56
2022/07/28 14:13:53;;;;;;;11.90;6.40;;;;;;;;;;3343279;42;20139;-58
2022/07/28 14:16:22;;;;;;;11.38;6.07;;;;;;;;;;3353135;42;20084;-59
2022/07/28 14:18:48;;;;;;;12.82;5.60;;;;;;;;;;3351841;42;20127;-58
2022/07/28 14:21:15;;;;;;;11.15;6.40;;;;;;;;;;3352695;42;20097;-59
2022/07/28 14:23:40;;;;;;;10.98;6.20;;;;;;;;;;3352489;42;20103;-58
2022/07/28 14:26:07;;;;;;;10.50;5.97;;;;;;;;;;3358590;42;20849;-58
2022/07/28 14:28:33;;;;;;;13.45;7.05;;;;;;;;;;3358171;42;20111;-57
2022/07/28 14:30:59;;;;;;;11.77;6.28;;;;;;;;;;3350698;42;20135;-56
2022/07/28 14:33:31;;;;;;;10.32;5.72;;;;;;;;;;3351779;42;20096;-57
2022/07/28 14:35:57;;;;;;;10.33;6.10;;;;;;;;;;3352414;42;20148;-58
2022/07/28 14:38:23;;;;;;;13.93;6.20;;;;;;;;;;3351593;42;20155;-56